Time;durP1;ratioP1;P1;durP2;ratioP2;P2;SDS_P1;SDS_P2;PMS_P1;PMS_P2;Temp;Humidity;BMP_temperature;BMP_pressure;BME280_temperature;BME280_humidity;BME280_pressure;Samples;Min_cycle;Max_cycle;Signal;HPM_P1;HPM_P2
2022/11/21 16:29:59;;;;;;;8.57;1.73;;;;;;;14.74;60.23;99598.56;4976651;24;20381;-80
2022/11/21 16:32:25;;;;;;;2.67;1.45;;;;;;;14.73;60.04;99589.06;4825595;29;20390;-79
2022/11/21 16:34:50;;;;;;;5.80;1.75;;;;;;;14.70;60.04;99576.19;4816213;29;20498;-79
2022/11/21 16:37:16;;;;;;;4.45;1.60;;;;;;;14.69;60.16;99564.09;4809914;29;20107;-80
2022/11/21 16:39:41;;;;;;;2.70;1.63;;;;;;;14.69;60.04;99558.06;4807868;29;20046;-79
2022/11/21 16:42:10;;;;;;;4.43;1.83;;;;;;;14.68;60.09;99553.78;4764177;29;20509;-79
2022/11/21 16:44:35;;;;;;;3.35;1.60;;;;;;;14.67;60.00;99554.66;4794115;29;20035;-80
2022/11/21 16:47:00;;;;;;;2.80;1.65;;;;;;;14.67;60.18;99552.91;4778670;29;20114;-79
2022/11/21 16:49:29;;;;;;;3.30;1.70;;;;;;;14.68;60.22;99541.69;4765694;29;20386;-81
2022/11/21 16:52:01;;;;;;;2.45;1.40;;;;;;;14.68;60.14;99546.88;4796913;29;20042;-80
2022/11/21 16:54:28;;;;;;;2.50;1.67;;;;;;;14.68;60.32;99533.91;4782308;29;20138;-80
2022/11/21 16:56:54;;;;;;;2.55;1.55;;;;;;;14.69;60.21;99521.81;4812832;29;20043;-81
2022/11/21 16:59:19;;;;;;;2.40;1.35;;;;;;;14.69;60.26;99519.22;4812461;29;20104;-81
2022/11/21 17:01:45;;;;;;;2.45;1.40;;;;;;;14.69;60.24;99514.91;4827444;29;20043;-81
2022/11/21 17:04:10;;;;;;;2.72;1.40;;;;;;;14.68;60.17;99512.38;4782249;29;20043;-80
2022/11/21 17:06:36;;;;;;;3.38;1.40;;;;;;;14.69;60.08;99512.31;4798054;29;20494;-81
2022/11/21 17:09:01;;;;;;;3.53;1.60;;;;;;;14.69;60.48;99508.88;4812875;29;20045;-81
2022/11/21 17:11:30;;;;;;;2.72;1.50;;;;;;;14.69;60.34;99512.31;4798096;29;20571;-80
2022/11/21 17:14:04;;;;;;;6.07;1.40;;;;;;;14.70;60.20;99505.38;4820503;29;20058;-81
2022/11/21 17:16:30;;;;;;;2.00;1.13;;;;;;;14.70;60.32;99492.44;4816193;29;20053;-81
2022/11/21 17:18:58;;;;;;;3.17;1.40;;;;;;;14.70;60.29;99502.81;4815519;29;20043;-81
2022/11/21 17:21:24;;;;;;;1.90;1.40;;;;;;;14.71;60.37;99499.34;4799000;29;20039;-81
2022/11/21 17:23:50;;;;;;;3.15;1.63;;;;;;;14.70;60.43;99501.09;4820651;29;20042;-80
2022/11/21 17:26:21;;;;;;;2.72;1.58;;;;;;;14.72;60.55;99501.03;4786352;29;20443;-81
2022/11/21 17:28:54;;;;;;;2.47;1.40;;;;;;;14.71;60.28;99491.56;4799431;29;20042;-80
2022/11/21 17:31:20;;;;;;;2.47;1.35;;;;;;;14.72;60.44;99496.72;4801973;29;20084;-80
2022/11/21 17:33:50;;;;;;;2.25;1.27;;;;;;;14.73;60.53;99482.03;4804506;29;20459;-80
2022/11/21 17:36:20;;;;;;;2.40;1.10;;;;;;;14.72;60.36;99481.19;4815921;29;20639;-80
2022/11/21 17:38:46;;;;;;;1.88;1.20;;;;;;;14.73;60.31;99474.28;4816329;29;20039;-80
2022/11/21 17:41:14;;;;;;;3.13;1.67;;;;;;;14.73;60.41;99467.34;4800795;29;20042;-80
2022/11/21 17:43:40;;;;;;;3.78;1.10;;;;;;;14.75;60.49;99462.16;4814923;29;20049;-80
2022/11/21 17:46:18;;;;;;;2.40;1.30;;;;;;;14.74;60.55;99457.84;4814777;29;20047;-80
2022/11/21 17:48:46;;;;;;;2.17;1.00;;;;;;;14.75;60.38;99452.63;4784424;29;20096;-80
2022/11/21 17:51:12;;;;;;;2.03;1.10;;;;;;;14.76;60.43;99453.50;4783775;29;20055;-80
2022/11/21 17:53:42;;;;;;;2.03;1.20;;;;;;;14.76;60.59;99440.53;4798402;29;20099;-80
2022/11/21 17:56:11;;;;;;;2.50;1.35;;;;;;;14.75;60.63;99428.50;4815593;29;20062;-80
2022/11/21 17:58:36;;;;;;;2.58;1.33;;;;;;;14.75;60.55;99431.94;4813919;29;20066;-80
2022/11/21 18:01:05;;;;;;;1.77;1.08;;;;;;;14.77;60.56;99426.72;4798723;29;20505;-80
2022/11/21 18:03:31;;;;;;;2.83;1.20;;;;;;;14.77;60.61;99430.16;4799901;29;20050;-80
2022/11/21 18:06:01;;;;;;;1.77;1.10;;;;;;;14.77;60.57;99422.38;4796882;29;20030;-80
2022/11/21 18:08:31;;;;;;;2.38;1.30;;;;;;;14.77;60.50;99409.44;4797818;29;20041;-80
2022/11/21 18:10:57;;;;;;;2.15;0.95;;;;;;;14.78;60.63;99405.09;4784648;29;20054;-77
2022/11/21 18:13:24;;;;;;;3.53;1.10;;;;;;;14.79;60.51;99397.31;4784630;29;20046;-80
2022/11/21 18:15:52;;;;;;;1.77;1.10;;;;;;;14.78;60.53;99386.97;4821996;29;20034;-81
2022/11/21 18:18:24;;;;;;;2.72;1.33;;;;;;;14.80;60.54;99390.41;4823599;29;20023;-81
2022/11/21 18:21:28;;;;;;;1.70;1.15;;;;;;;14.81;60.61;99398.13;4793572;29;20118;-81
2022/11/21 18:23:58;;;;;;;1.83;1.15;;;;;;;14.83;60.58;99392.94;4821450;29;20047;-79
2022/11/21 18:26:30;;;;;;;2.38;1.20;;;;;;;14.82;60.82;99392.06;4815316;29;20499;-77
2022/11/21 18:28:58;;;;;;;2.75;1.10;;;;;;;14.83;60.82;99390.34;4818051;29;20039;-78
2022/11/21 18:34:22;;;;;;;1.80;1.10;;;;;;;14.86;60.83;99379.06;4835311;29;20443;-79
2022/11/21 18:36:59;;;;;;;1.75;1.00;;;;;;;14.85;61.03;99370.44;4830424;29;20063;-80
2022/11/21 18:41:52;;;;;;;1.83;0.90;;;;;;;14.89;61.25;99363.44;4795320;29;1115201;-80
2022/11/21 18:44:18;;;;;;;2.60;1.30;;;;;;;14.89;61.24;99356.53;4833430;29;20082;-78
2022/11/21 18:46:44;;;;;;;3.25;1.17;;;;;;;14.90;61.42;99350.47;4897931;24;20066;-80
2022/11/21 18:49:32;;;;;;;2.30;1.20;;;;;;;14.92;61.72;99350.44;4848276;24;20065;31
2022/11/21 18:52:13;;;;;;;3.25;1.20;;;;;;;14.93;61.73;99350.38;4849612;29;20104;-84
2022/11/21 18:54:39;;;;;;;2.40;1.10;;;;;;;14.94;61.86;99340.91;4842458;29;20043;-77
2022/11/21 18:57:05;;;;;;;2.90;1.30;;;;;;;14.93;61.60;99337.44;4851725;29;20022;-79
2022/11/21 18:59:36;;;;;;;2.42;1.05;;;;;;;14.94;61.99;99333.13;4837742;29;20902;-79
2022/11/21 19:02:02;;;;;;;1.95;1.05;;;;;;;14.94;62.07;99338.31;4851615;29;20053;-81
2022/11/21 19:04:30;;;;;;;2.70;1.20;;;;;;;14.96;62.17;99328.75;4859527;29;20133;-81
2022/11/21 19:07:02;;;;;;;1.80;1.00;;;;;;;14.97;62.12;99333.06;4839568;29;20038;-81
2022/11/21 19:09:27;;;;;;;1.48;0.90;;;;;;;14.98;62.34;99332.16;4840130;29;20030;-81
2022/11/21 19:11:53;;;;;;;1.73;1.20;;;;;;;14.99;62.39;99332.13;4841158;29;20054;-80
2022/11/21 19:14:23;;;;;;;1.88;0.90;;;;;;;14.99;62.40;99324.34;4857972;29;20042;-82
2022/11/21 19:16:51;;;;;;;1.98;0.75;;;;;;;14.99;62.43;99316.59;4825261;29;20046;-81
2022/11/21 19:19:57;;;;;;;1.85;0.98;;;;;;;15.02;62.41;99310.47;4846388;29;20054;-79
2022/11/21 19:23:02;;;;;;;2.92;1.20;;;;;;;15.04;62.57;99307.84;4844835;29;20042;-81
2022/11/21 19:25:29;;;;;;;;;;;;;;;15.06;62.66;99300.91;4860674;29;20051;-83
2022/11/21 19:31:17;;;;;;;1.92;1.10;;;;;;;15.07;62.94;99298.28;4838972;29;20041;-81
2022/11/21 19:33:44;;;;;;;2.08;1.10;;;;;;;15.08;62.85;99299.97;4844023;29;20141;-81
2022/11/21 19:36:20;;;;;;;1.70;1.00;;;;;;;15.09;62.97;99293.91;4846842;29;20042;-81
2022/11/21 19:42:17;;;;;;;1.55;1.10;;;;;;;15.10;62.64;99289.59;4846565;29;20045;-81
2022/11/21 19:45:14;;;;;;;2.10;1.20;;;;;;;15.12;62.71;99293.00;4843504;29;20022;-81
2022/11/21 19:48:02;;;;;;;3.83;1.20;;;;;;;15.10;62.51;99287.84;4823100;29;20046;-81
2022/11/21 19:50:31;;;;;;;3.83;1.30;;;;;;;15.10;62.96;99287.00;4819311;29;20055;-81
2022/11/21 19:53:40;;;;;;;1.90;1.20;;;;;;;15.10;62.60;99281.81;4821874;29;20043;-82
2022/11/21 19:56:32;;;;;;;3.60;1.02;;;;;;;15.09;62.48;99278.38;4805027;29;20041;-81
2022/11/21 19:58:58;;;;;;;2.90;1.00;;;;;;;15.09;62.51;99270.59;4818224;29;20043;-80
2022/11/21 20:01:29;;;;;;;3.05;1.20;;;;;;;15.10;62.53;99271.44;4796146;29;20027;-80
2022/11/21 20:04:00;;;;;;;2.22;1.20;;;;;;;15.11;62.66;99267.94;4809926;29;20051;-81
2022/11/21 20:06:34;;;;;;;3.28;1.20;;;;;;;15.12;62.57;99264.50;4807056;29;20042;-80
2022/11/21 20:09:03;;;;;;;2.97;1.17;;;;;;;15.11;62.69;99262.78;4798547;29;20031;-79
2022/11/21 20:11:31;;;;;;;2.10;1.10;;;;;;;15.12;62.87;99252.38;4818705;29;20074;-80
2022/11/21 20:14:07;;;;;;;5.45;1.40;;;;;;;15.15;62.95;99248.84;4831640;29;20042;-80
2022/11/21 20:16:52;;;;;;;3.17;1.27;;;;;;;15.14;63.03;99248.00;4849621;29;20101;-81
2022/11/21 20:20:01;;;;;;;2.90;1.08;;;;;;;15.16;63.06;99235.03;4798809;30;20043;-80
2022/11/21 20:22:46;;;;;;;3.08;1.45;;;;;;;15.16;63.13;99227.25;4774924;30;20043;-80
2022/11/21 20:25:14;;;;;;;2.13;1.25;;;;;;;15.16;63.16;99225.50;4759344;30;20451;-79
2022/11/21 20:27:40;;;;;;;3.13;1.30;;;;;;;15.16;62.98;99225.50;4759805;30;20153;-79
2022/11/21 20:30:06;;;;;;;3.90;1.60;;;;;;;15.16;63.10;99219.47;4774482;30;20523;-80
2022/11/21 20:32:34;;;;;;;2.78;1.17;;;;;;;15.15;62.83;99212.59;4743804;30;20511;-80
2022/11/21 20:35:00;;;;;;;3.35;1.60;;;;;;;15.14;62.67;99208.31;4759438;30;20079;-80
2022/11/21 20:37:25;;;;;;;5.78;1.35;;;;;;;15.15;62.46;99212.59;4758931;30;20051;-79
2022/11/21 20:48:27;;;;;;;3.80;1.35;;;;;;;15.15;62.69;99207.41;4977256;23;20075;-85
2022/11/21 20:51:04;;;;;;;3.05;1.45;;;;;;;15.15;62.85;99205.66;4791455;30;20055;-84
2022/11/21 21:34:34;;;;;;;2.45;1.20;;;;;;;15.18;63.25;99152.94;4847003;29;20049;-82
2022/11/21 21:40:22;;;;;;;2.63;1.15;;;;;;;15.15;63.07;99140.88;4838473;29;20123;-80
2022/11/21 21:49:48;;;;;;;1.98;1.20;;;;;;;15.17;63.09;99141.69;4848421;29;20060;-82
2022/11/21 22:08:48;;;;;;;2.92;1.20;;;;;;;15.18;63.34;99124.41;5787808;24;20925;-87
2022/11/21 22:11:15;;;;;;;6.45;1.20;;;;;;;15.16;63.19;99116.69;4851835;29;20069;-86
2022/11/21 22:13:43;;;;;;;3.45;1.13;;;;;;;15.17;63.35;99107.16;4867543;29;20083;-84
2022/11/21 22:16:12;;;;;;;2.10;1.15;;;;;;;15.14;63.09;99108.09;4867199;29;20042;-84
2022/11/21 22:18:38;;;;;;;2.50;1.10;;;;;;;15.15;63.43;99112.38;4852752;29;20061;-85
2022/11/21 22:21:18;;;;;;;2.03;1.00;;;;;;;15.14;63.10;99109.84;4867963;29;20097;-85
2022/11/21 22:47:36;;;;;;;3.70;1.20;;;;;;;15.10;62.98;99082.31;4898660;24;20065;-80
2022/11/21 22:50:03;;;;;;;1.67;1.10;;;;;;;15.09;62.93;99086.66;4829116;29;20074;-81
2022/11/21 22:52:30;;;;;;;3.97;1.30;;;;;;;15.10;62.89;99083.16;4844861;29;20038;-81
2022/11/21 22:54:56;;;;;;;3.40;1.20;;;;;;;15.10;62.90;99074.56;4821156;29;20046;-80
2022/11/21 22:57:21;;;;;;;3.03;1.23;;;;;;;15.09;62.97;99068.53;4820614;29;20057;-80
2022/11/21 22:59:52;;;;;;;3.10;1.23;;;;;;;15.08;62.80;99059.03;4820938;29;20053;-81
2022/11/21 23:02:18;;;;;;;3.70;1.20;;;;;;;15.08;62.75;99066.81;4836457;29;20051;-80
2022/11/21 23:04:43;;;;;;;1.80;1.08;;;;;;;15.10;62.73;99062.44;4820290;29;20042;-80
2022/11/21 23:07:12;;;;;;;3.47;1.20;;;;;;;15.08;62.76;99061.63;4802334;29;20050;-80
2022/11/21 23:09:38;;;;;;;3.45;1.23;;;;;;;15.09;62.80;99057.28;4819945;29;20105;-80
2022/11/21 23:12:05;;;;;;;3.55;1.15;;;;;;;15.09;62.69;99052.09;4819489;29;20065;-80
2022/11/21 23:14:31;;;;;;;2.63;1.25;;;;;;;15.08;62.64;99059.03;4820665;29;20094;-80
2022/11/21 23:16:58;;;;;;;2.80;1.25;;;;;;;15.08;62.63;99046.09;4790116;29;20039;-81
2022/11/21 23:19:25;;;;;;;1.65;0.90;;;;;;;15.08;62.64;99048.69;4835410;29;20183;-80
2022/11/21 23:21:50;;;;;;;2.53;1.10;;;;;;;15.09;62.55;99050.38;4804546;29;20050;-79
2022/11/21 23:24:16;;;;;;;5.10;1.20;;;;;;;15.08;62.59;99048.69;4819745;29;20050;-80
2022/11/21 23:26:43;;;;;;;2.83;1.05;;;;;;;15.07;62.63;99049.59;4842561;29;20054;-80
2022/11/21 23:29:11;;;;;;;3.80;1.20;;;;;;;15.10;62.64;99048.63;4842449;29;20057;-80
2022/11/21 23:31:38;;;;;;;3.50;1.13;;;;;;;15.09;62.69;99054.69;4848194;29;20105;-80
2022/11/21 23:34:15;;;;;;;4.28;1.20;;;;;;;15.09;62.43;99044.34;4827401;29;20043;-80
2022/11/21 23:36:40;;;;;;;2.45;1.05;;;;;;;15.07;62.53;99047.00;4838156;29;20038;-80
2022/11/21 23:39:08;;;;;;;1.63;1.05;;;;;;;15.09;62.49;99041.75;4835620;29;20038;-80
2022/11/21 23:41:33;;;;;;;2.22;1.10;;;;;;;15.08;62.32;99035.72;4805525;29;20046;-80
2022/11/21 23:44:05;;;;;;;3.65;1.10;;;;;;;15.10;62.62;99043.47;4837227;29;20105;-80
2022/11/21 23:46:32;;;;;;;2.83;1.10;;;;;;;15.07;62.57;99043.53;4837698;29;20054;-80
2022/11/21 23:49:01;;;;;;;1.73;0.93;;;;;;;15.09;62.43;99054.69;4829834;29;20046;-80
2022/11/21 23:51:28;;;;;;;1.75;1.02;;;;;;;15.09;62.48;99052.09;4835789;29;20054;-81
2022/11/21 23:53:55;;;;;;;3.30;1.20;;;;;;;15.07;62.29;99049.59;4819842;29;20451;-80
2022/11/21 23:56:20;;;;;;;2.20;0.85;;;;;;;15.07;62.35;99057.34;4835150;29;20035;-81
2022/11/21 23:58:46;;;;;;;2.20;1.00;;;;;;;15.09;62.61;99062.47;4818719;29;20099;-80
